Flight Track Log - Related Links

Times and Time Zones

All times are in EDT time to prevent confusion due to time zone crossing. See the ASQ4232 flight status page for this flight to view local times or setup timezone preferences in your user account.

Time Position Orientation Groundspeed Altitude Reporting Facility
EDT Latitude Longitude Course Direction KTS MPH feet Rate Location/Type
Sun 05:12:38 PM 44.4575 -73.3767 241° Southwest 233 268 7,700  Level Boston Center
Sun 05:13:38 PM 44.4236 -73.4575 240° Southwest 238 274 10,200 2,000 Climbing Boston Center
Sun 05:14:38 PM 44.3872 -73.5411 239° Southwest 248 285 11,700 1,350 Climbing Boston Center
Sun 05:15:38 PM 44.3447 -73.6361 238° Southwest 276 318 12,900 1,300 Climbing Boston Center
Sun 05:16:00 PM 44.2145 -73.7586 240° Southwest  Level FlightAware Approximate
Sun 05:16:38 PM 44.2997 -73.7367 238° Southwest 301 346 14,300  Level Boston Center
Sun 05:17:38 PM 44.2528 -73.8400 238° Southwest 312 359 15,800 1,550 Climbing Boston Center
Sun 05:18:38 PM 44.2078 -73.9431 239° Southwest 317 365 17,400 1,650 Climbing Boston Center
Sun 05:19:38 PM 44.1647 -74.0433 239° Southwest 310 357 19,100 1,650 Climbing Boston Center
Sun 05:20:38 PM 44.1194 -74.1406 237° Southwest 310 357 20,700 1,450 Climbing Boston Center
Sun 05:21:38 PM 44.0742 -74.2433 239° Southwest 310 357 22,000 1,350 Climbing Boston Center
Sun 05:22:38 PM 44.0289 -74.3431 238° Southwest 315 362 23,400 1,350 Climbing Boston Center
Sun 05:23:38 PM 43.9856 -74.4425 239° Southwest 315 362 24,700 1,300 Climbing Boston Center
Sun 05:24:38 PM 43.9381 -74.5392 236° Southwest 315 362 26,000 1,350 Climbing Boston Center
Sun 05:25:38 PM 43.8944 -74.6411 239° Southwest 315 362 27,400 1,350 Climbing Boston Center
Sun 05:26:38 PM 43.8508 -74.7347 237° Southwest 315 362 28,700 1,300 Climbing Boston Center
Sun 05:27:38 PM 43.8092 -74.8308 239° Southwest 310 357 30,000 1,150 Climbing Boston Center
Sun 05:28:38 PM 43.7633 -74.9297 237° Southwest 305 351 31,000 850 Climbing Boston Center
Sun 05:29:38 PM 43.7153 -75.0283 236° Southwest 305 351 31,700 500 Climbing Boston Center
Sun 05:30:38 PM 43.6669 -75.1383 239° Southwest 321 369 32,000 150 Climbing Boston Center
Sun 05:31:38 PM 43.6119 -75.2533 237° Southwest 344 396 32,000  Level Boston Center
Sun 05:32:38 PM 43.5569 -75.3739 238° Southwest 364 419 32,000  Level Boston Center
Sun 05:33:38 PM 43.4994 -75.4972 237° Southwest 375 432 32,000  Level Boston Center
Sun 05:34:38 PM 43.4442 -75.6175 238° Southwest 380 437 32,000  Level Boston Center
Sun 05:35:38 PM 43.3908 -75.7317 237° Southwest 388 447 32,000  Level Boston Center
Sun 05:36:38 PM 43.3331 -75.8542 237° Southwest 388 447 32,000  Level Boston Center
Sun 05:37:38 PM 43.2753 -75.9736 236° Southwest 383 441 32,000  Level Boston Center
Sun 05:39:10 PM 43.1803 -76.1642 236° Southwest 385 443 32,000  Level Cleveland Center
Sun 05:40:10 PM 43.1331 -76.2956 244° Southwest 385 443 32,000  Level Cleveland Center
Sun 05:41:10 PM 43.0919 -76.4236 246° West 385 443 32,000 -50 Level Cleveland Center
Sun 05:42:10 PM 43.0508 -76.5542 247° West 380 437 31,900  Descending Cleveland Center
Sun 05:43:10 PM 43.0075 -76.6875 246° West 380 437 32,000 50 Climbing Cleveland Center
Sun 05:44:10 PM 42.9658 -76.8181 246° West 385 443 32,000  Level Cleveland Center
Sun 05:45:10 PM 42.9242 -76.9453 246° West 385 443 32,000  Level Cleveland Center
Sun 05:46:10 PM 42.8781 -77.0783 245° Southwest 385 443 32,000  Level Cleveland Center
Sun 05:47:10 PM 42.8256 -77.2003 240° Southwest 385 443 32,000  Level Cleveland Center
Sun 05:48:10 PM 42.7728 -77.3247 240° Southwest 385 443 32,000  Level Cleveland Center
Sun 05:49:10 PM 42.7200 -77.4489 240° Southwest 385 443 32,000  Level Cleveland Center
Sun 05:50:10 PM 42.6692 -77.5758 241° Southwest 385 443 32,000  Level Cleveland Center
Sun 05:51:10 PM 42.6139 -77.6997 239° Southwest 385 443 32,000  Level Cleveland Center
Sun 05:52:10 PM 42.5706 -77.8003 240° Southwest 385 443 32,000  Level Cleveland Center
Sun 05:53:10 PM 42.5111 -77.9325 239° Southwest 385 443 32,000  Level Cleveland Center
Sun 05:54:10 PM 42.4556 -78.0617 240° Southwest 385 443 32,000  Level Cleveland Center
Sun 05:55:10 PM 42.4019 -78.1847 239° Southwest 385 443 32,000  Level Cleveland Center
Sun 05:56:10 PM 42.3481 -78.3075 239° Southwest 390 449 32,000  Level Cleveland Center
Sun 05:57:10 PM 42.2922 -78.4358 240° Southwest 390 449 32,000  Level Cleveland Center
Sun 05:58:10 PM 42.2361 -78.5583 238° Southwest 390 449 32,000  Level Cleveland Center
Sun 05:59:10 PM 42.1797 -78.6833 239° Southwest 395 455 32,000 -50 Level Cleveland Center
Sun 06:00:10 PM 42.1278 -78.8139 242° Southwest 395 455 31,900 -800 Descending Cleveland Center
Sun 06:01:10 PM 42.0903 -78.9519 250° West 390 449 30,400 -1,500 Descending Cleveland Center
Sun 06:02:10 PM 42.0586 -79.0842 252° West 390 449 28,900 -1,550 Descending Cleveland Center
Sun 06:03:10 PM 42.0247 -79.2164 251° West 390 449 27,300 -950 Descending Cleveland Center
Sun 06:04:10 PM 41.9931 -79.3483 252° West 385 443 27,000 -600 Descending Cleveland Center
Sun 06:05:10 PM 41.9569 -79.4858 251° West 385 443 26,100 -500 Descending Cleveland Center
Sun 06:06:10 PM 41.9164 -79.6400 251° West 390 449 26,000 -50 Descending Cleveland Center
Sun 06:07:10 PM 41.8822 -79.7772 252° West 395 455 26,000 -600 Level Cleveland Center
Sun 06:08:10 PM 41.8872 -79.9250 273° West 387 445 24,800 -1,250 Descending Cleveland Center
Sun 06:09:10 PM 41.9025 -80.0447 280° West 380 437 23,500 -1,450 Descending Cleveland Center
Sun 06:10:10 PM 41.9197 -80.1703 280° West 363 418 21,900 -1,550 Descending Cleveland Center
Sun 06:11:10 PM 41.9325 -80.2872 278° West 336 387 20,400 -950 Descending Cleveland Center
Sun 06:12:10 PM 41.9097 -80.4019 255° West 314 361 20,000 -600 Descending Cleveland Center
Sun 06:13:10 PM 41.8600 -80.5022 236° Southwest 314 361 19,200 -1,100 Descending Cleveland Center
Sun 06:14:10 PM 41.8078 -80.5997 234° Southwest 330 380 17,800 -1,400 Descending Cleveland Center
Sun 06:15:10 PM 41.7597 -80.6972 237° Southwest 330 380 16,400 -1,300 Descending Cleveland Center
Sun 06:16:10 PM 41.7075 -80.7972 235° Southwest 320 368 15,200 -1,300 Descending Cleveland Center
Sun 06:17:10 PM 41.6636 -80.8778 234° Southwest 297 342 13,800 -1,400 Descending Cleveland Center
Sun 06:18:10 PM 41.6217 -80.9608 236° Southwest 277 319 12,400 -1,421 Descending Cleveland Center
Sun 06:18:26 PM 41.6111 -80.9858 241° Southwest 265 305 12,000 -1,400 Descending Cleveland Center
Sun 06:19:10 PM 41.5817 -81.0383 233° Southwest 270 311 11,000 -1,475 Descending Cleveland Center
Sun 06:19:27 PM 41.5692 -81.0606 233° Southwest 256 295 10,500 -1,000 Descending Cleveland Center
Sun 06:20:10 PM 41.5419 -81.1131 235° Southwest 265 305 10,000 -492 Descending Cleveland Center
Sun 06:20:28 PM 41.5292 -81.1378 235° Southwest 250 288 10,000  Level Cleveland Center
Sun 06:21:10 PM 41.5183 -81.1989 257° West 253 291 10,000  Level Cleveland Center
Sun 06:21:29 PM 41.5286 -81.2267 296° West 249 287 10,000 -800 Level Cleveland Center
Sun 06:22:10 PM 41.5431 -81.2850 288° West 236 272 9,200 -1,000 Descending Cleveland Center
Sun 06:22:29 PM 41.5594 -81.3019 322° Northwest 259 298 9,000 -892 Descending Cleveland Center
Sun 06:23:24 PM 41.6072 -81.3442 327° Northwest 211 243 8,100 -594 Descending Cleveland Center
Sun 06:24:10 PM 41.6425 -81.3722 329° Northwest 201 231 8,000 -179 Descending Cleveland Center
Sun 06:24:31 PM 41.6569 -81.3836 329° Northwest 169 194 7,900 -700 Descending Cleveland Center
Sun 06:25:10 PM 41.6756 -81.4089 315° West 172 198 7,300 -982 Descending Cleveland Center
Sun 06:25:26 PM 41.6756 -81.4200 270° West 160 184 7,000 -1,200 Descending Cleveland Center
Sun 06:26:10 PM 41.6606 -81.4614 244° Southwest 131 151 6,100 -896 Descending Cleveland Center
Sun 06:26:33 PM 41.6522 -81.4781 236° Southwest 154 177 6,000 -200 Descending Cleveland Center
Sun 06:27:10 PM 41.6375 -81.4972 224° Southwest 131 151 5,900 -556 Descending Cleveland Center
Sun 06:27:27 PM 41.6267 -81.5164 233° Southwest 150 173 5,500 -800 Descending Cleveland Center
Sun 06:28:10 PM 41.6100 -81.5414 228° Southwest 150 173 5,100 -492 Descending Cleveland Center
Sun 06:28:28 PM 41.5994 -81.5578 229° Southwest 150 173 5,000 -71 Descending Cleveland Center
Sun 06:29:35 PM 41.5656 -81.6072 228° Southwest 174 200 5,000  Level Cleveland Center

Login

Don't have an account? Register now (free) for customized features, flight alerts, and more!